Time;durP1;ratioP1;P1;durP2;ratioP2;P2;SDS_P1;SDS_P2;PMS_P1;PMS_P2;Temp;Humidity;BMP_temperature;BMP_pressure;BME280_temperature;BME280_humidity;BME280_pressure;Samples;Min_cycle;Max_cycle;Signal;HPM_P1;HPM_P2
2021/06/10 00:01:29;;;;;;;0.70;0.62;;;20.00;91.60;;;;;;4415165;32;20074;-61
2021/06/10 00:03:55;;;;;;;0.57;0.40;;;20.10;91.50;;;;;;4414954;32;20428;-61
2021/06/10 00:06:20;;;;;;;0.43;0.30;;;20.00;91.70;;;;;;4414746;32;20085;-61
2021/06/10 00:08:46;;;;;;;0.40;0.40;;;19.90;91.80;;;;;;4414805;32;20124;-59
2021/06/10 00:11:11;;;;;;;1.12;0.77;;;20.00;92.10;;;;;;4414128;32;20065;-59
2021/06/10 00:13:37;;;;;;;0.32;0.30;;;20.10;92.50;;;;;;4423767;32;20456;-60
2021/06/10 00:16:03;;;;;;;0.40;0.40;;;20.10;92.60;;;;;;4429023;32;20116;-57
2021/06/10 00:18:28;;;;;;;0.40;0.40;;;20.00;92.50;;;;;;4429451;32;20096;-57
2021/06/10 00:20:54;;;;;;;0.20;0.20;;;19.90;92.70;;;;;;4429720;32;20105;-61
2021/06/10 00:23:19;;;;;;;0.43;0.40;;;19.90;92.80;;;;;;4415583;32;20078;-60
2021/06/10 00:25:45;;;;;;;0.37;0.37;;;20.00;92.90;;;;;;4430278;32;20124;-60
2021/06/10 00:28:10;;;;;;;0.30;0.30;;;19.90;93.10;;;;;;4430500;32;20376;-58
2021/06/10 00:30:36;;;;;;;0.45;0.40;;;20.00;93.20;;;;;;4415328;32;20061;-60
2021/06/10 00:33:03;;;;;;;0.30;0.30;;;19.90;93.40;;;;;;4410560;32;20060;-60
2021/06/10 00:35:30;;;;;;;1.85;1.00;;;20.00;93.60;;;;;;4414840;32;20502;-60
2021/06/10 00:37:58;;;;;;;0.40;0.40;;;20.00;93.70;;;;;;4400923;32;20070;-60
2021/06/10 00:40:24;;;;;;;0.30;0.30;;;20.00;93.30;;;;;;4401691;32;20099;-60
2021/06/10 00:42:49;;;;;;;0.37;0.30;;;19.90;93.50;;;;;;4414570;32;20069;-60
2021/06/10 00:45:17;;;;;;;0.50;0.50;;;19.80;93.70;;;;;;4429074;32;20061;-60
2021/06/10 00:47:44;;;;;;;0.40;0.40;;;19.50;94.30;;;;;;4430083;32;20065;-60
2021/06/10 00:50:11;;;;;;;0.30;0.30;;;19.40;94.80;;;;;;4429654;32;20066;-60
2021/06/10 00:52:38;;;;;;;0.22;0.22;;;19.30;95.30;;;;;;4403302;32;20065;-60
2021/06/10 00:55:04;;;;;;;0.52;0.40;;;19.30;95.60;;;;;;4415192;32;20089;-60
2021/06/10 00:57:30;;;;;;;0.37;0.37;;;19.40;95.30;;;;;;4430393;32;20576;-60
2021/06/10 00:59:55;;;;;;;0.43;0.40;;;19.40;95.40;;;;;;4429300;32;20065;-59
2021/06/10 01:02:21;;;;;;;0.80;0.55;;;19.50;95.10;;;;;;4428517;32;20079;-59
2021/06/10 01:04:47;;;;;;;0.40;0.40;;;19.70;95.00;;;;;;4430202;32;20061;-59
2021/06/10 01:07:20;;;;;;;4.37;0.40;;;19.60;95.00;;;;;;4415354;32;20117;-59
2021/06/10 01:10:15;;;;;;;0.60;0.60;;;19.60;95.00;;;;;;4414438;32;20058;-58
2021/06/10 01:13:07;;;;;;;0.65;0.40;;;19.70;95.00;;;;;;4413685;32;20117;-59
2021/06/10 01:15:40;;;;;;;0.45;0.40;;;19.50;95.10;;;;;;4402971;32;20121;-57
2021/06/10 01:18:06;;;;;;;0.95;0.43;;;19.50;95.50;;;;;;4414486;32;20065;-60
2021/06/10 01:20:33;;;;;;;0.55;0.50;;;19.50;95.40;;;;;;4413830;32;20081;-60
2021/06/10 01:23:09;;;;;;;1.55;0.82;;;19.40;95.60;;;;;;4413585;32;20058;-60
2021/06/10 01:25:41;;;;;;;0.40;0.40;;;19.20;96.10;;;;;;4413965;32;20510;-60
2021/06/10 01:28:13;;;;;;;0.40;0.40;;;19.40;96.10;;;;;;4413864;32;20057;-60
2021/06/10 01:30:44;;;;;;;1.05;0.62;;;19.40;96.10;;;;;;4412983;32;20058;-59
2021/06/10 01:33:14;;;;;;;0.55;0.55;;;19.50;96.00;;;;;;4405817;32;20065;-58
2021/06/10 01:35:50;;;;;;;0.45;0.45;;;19.40;96.20;;;;;;4415944;32;20060;-59
2021/06/10 01:38:16;;;;;;;0.32;0.32;;;19.50;96.20;;;;;;4429794;32;20061;-59
2021/06/10 01:40:44;;;;;;;0.98;0.70;;;19.50;96.40;;;;;;4429046;32;20069;-60
2021/06/10 01:43:12;;;;;;;0.82;0.40;;;19.50;96.50;;;;;;4414690;32;20069;-60
2021/06/10 01:45:38;;;;;;;0.60;0.60;;;19.60;96.50;;;;;;4428993;32;20092;-58
2021/06/10 01:48:04;;;;;;;0.30;0.30;;;19.40;96.80;;;;;;4429669;32;20074;-59
2021/06/10 01:50:30;;;;;;;0.30;0.30;;;19.40;96.80;;;;;;4415317;32;20077;-58
2021/06/10 01:52:56;;;;;;;0.68;0.50;;;19.30;96.90;;;;;;4416110;32;20109;-58
2021/06/10 01:55:28;;;;;;;0.30;0.30;;;19.10;97.60;;;;;;4429562;32;20076;-60
2021/06/10 01:57:57;;;;;;;0.37;0.35;;;19.20;97.60;;;;;;4429677;32;20511;-59
2021/06/10 02:00:23;;;;;;;0.43;0.43;;;19.20;97.80;;;;;;4428052;32;20458;-58
2021/06/10 02:02:52;;;;;;;0.32;0.32;;;19.30;97.80;;;;;;4427708;32;20058;-60
2021/06/10 02:05:20;;;;;;;0.62;0.50;;;19.40;97.60;;;;;;4429201;32;20062;-60
2021/06/10 02:07:45;;;;;;;0.80;0.50;;;19.40;97.70;;;;;;4415445;32;20490;-59
2021/06/10 02:10:15;;;;;;;0.88;0.88;;;19.30;98.00;;;;;;4429103;32;20082;-60
2021/06/10 02:12:42;;;;;;;0.45;0.45;;;19.30;98.20;;;;;;4400034;32;20062;-59
2021/06/10 02:15:10;;;;;;;0.40;0.40;;;19.30;98.50;;;;;;4413199;32;20082;-56
2021/06/10 02:17:36;;;;;;;0.52;0.50;;;19.20;98.90;;;;;;4414065;32;20074;-59
2021/06/10 02:20:04;;;;;;;0.25;0.25;;;19.20;99.30;;;;;;4399494;32;20069;-59
2021/06/10 02:22:30;;;;;;;0.30;0.30;;;19.10;99.60;;;;;;4413953;32;20073;-59
2021/06/10 02:24:56;;;;;;;1.08;0.93;;;19.10;99.90;;;;;;4413902;32;20073;-58
2021/06/10 02:27:21;;;;;;;1.05;0.80;;;19.20;99.90;;;;;;4399095;32;20459;-59
2021/06/10 02:29:47;;;;;;;0.30;0.30;;;19.10;99.90;;;;;;4413286;32;20066;-59
2021/06/10 02:32:13;;;;;;;0.40;0.40;;;19.10;99.90;;;;;;4412113;32;20066;-59
2021/06/10 02:34:38;;;;;;;1.87;0.50;;;19.10;99.90;;;;;;4414485;32;20211;-59
2021/06/10 02:37:06;;;;;;;0.35;0.35;;;19.10;99.90;;;;;;4415702;32;20403;-59
2021/06/10 02:39:37;;;;;;;0.30;0.30;;;19.20;99.90;;;;;;4428832;32;20090;-56
2021/06/10 02:42:05;;;;;;;0.30;0.30;;;19.30;99.90;;;;;;4412020;32;20144;-58
2021/06/10 02:44:31;;;;;;;1.90;0.90;;;19.30;99.90;;;;;;4426091;32;20511;-57
2021/06/10 02:46:57;;;;;;;0.20;0.20;;;19.20;99.90;;;;;;4414842;32;20127;-60
2021/06/10 02:49:24;;;;;;;0.32;0.32;;;19.30;99.90;;;;;;4428842;32;20066;-60
2021/06/10 02:51:51;;;;;;;0.32;0.32;;;19.20;99.90;;;;;;4428798;32;20109;-59
2021/06/10 02:54:19;;;;;;;0.65;0.52;;;19.30;99.90;;;;;;4430118;32;20069;-59
2021/06/10 02:56:46;;;;;;;1.20;1.00;;;19.30;99.90;;;;;;4417056;32;20065;-58
2021/06/10 02:59:16;;;;;;;0.47;0.30;;;19.20;99.90;;;;;;4416482;32;20081;-57
2021/06/10 03:01:44;;;;;;;1.55;0.50;;;19.10;99.90;;;;;;4429792;32;20078;-59
2021/06/10 03:04:13;;;;;;;0.20;0.20;;;18.80;99.90;;;;;;4418242;32;20065;-60
2021/06/10 03:06:39;;;;;;;1.58;0.80;;;18.70;99.90;;;;;;4431468;32;20498;-59
2021/06/10 03:09:06;;;;;;;0.50;0.50;;;18.70;99.90;;;;;;4431919;32;20064;-59
2021/06/10 03:11:32;;;;;;;0.40;0.40;;;18.80;99.90;;;;;;4417834;32;20065;-59
2021/06/10 03:13:59;;;;;;;0.75;0.70;;;18.90;99.90;;;;;;4405659;32;20073;-59
2021/06/10 03:16:25;;;;;;;0.32;0.32;;;19.00;99.90;;;;;;4416426;32;20073;-60
2021/06/10 03:18:52;;;;;;;0.40;0.40;;;19.10;99.90;;;;;;4402991;32;20070;-59
2021/06/10 03:21:19;;;;;;;0.40;0.40;;;19.00;99.90;;;;;;4403065;32;20128;-59
2021/06/10 03:23:44;;;;;;;0.20;0.20;;;18.80;99.90;;;;;;4390829;32;20535;-59
2021/06/10 03:26:10;;;;;;;0.85;0.80;;;18.80;99.90;;;;;;4415544;32;20066;-60
2021/06/10 03:28:37;;;;;;;0.35;0.35;;;18.90;99.90;;;;;;4414440;32;20435;-60
2021/06/10 03:31:03;;;;;;;2.90;0.45;;;19.00;99.90;;;;;;4401739;32;20082;-56
2021/06/10 03:33:29;;;;;;;0.50;0.50;;;19.00;99.90;;;;;;4409427;32;20066;-56
2021/06/10 03:35:55;;;;;;;0.30;0.30;;;18.90;99.90;;;;;;4431583;32;20073;-59
2021/06/10 03:38:23;;;;;;;0.30;0.30;;;18.90;99.90;;;;;;4417588;32;20451;-59
2021/06/10 03:40:49;;;;;;;0.85;0.50;;;18.90;99.90;;;;;;4416817;32;20085;-59
2021/06/10 03:43:16;;;;;;;0.85;0.73;;;18.90;99.90;;;;;;4415970;32;20065;-56
2021/06/10 03:45:41;;;;;;;0.20;0.20;;;18.90;99.90;;;;;;4431992;32;20161;-60
2021/06/10 03:48:10;;;;;;;0.52;0.52;;;18.80;99.90;;;;;;4404981;32;20521;-60
2021/06/10 03:50:37;;;;;;;0.35;0.35;;;18.80;99.90;;;;;;4403799;32;20069;-60
2021/06/10 03:53:03;;;;;;;0.60;0.60;;;18.70;99.90;;;;;;4417041;32;20066;-60
2021/06/10 03:55:29;;;;;;;0.30;0.30;;;18.70;99.90;;;;;;4430227;32;20069;-59
2021/06/10 03:57:54;;;;;;;1.20;0.90;;;18.70;99.90;;;;;;4430902;32;20080;-60
2021/06/10 04:00:20;;;;;;;0.43;0.25;;;18.80;99.90;;;;;;4430527;32;20065;-60
2021/06/10 04:02:46;;;;;;;0.40;0.40;;;18.70;99.90;;;;;;4402946;32;20073;-59
2021/06/10 04:05:11;;;;;;;0.25;0.25;;;18.80;99.90;;;;;;4417376;32;20077;-59
2021/06/10 04:07:37;;;;;;;0.40;0.40;;;18.90;99.90;;;;;;4415427;32;20077;-60
2021/06/10 04:10:05;;;;;;;0.25;0.25;;;18.90;99.90;;;;;;4414902;32;20066;-60
2021/06/10 04:12:30;;;;;;;0.43;0.40;;;18.70;99.90;;;;;;4401872;32;20082;-60
2021/06/10 04:14:56;;;;;;;1.35;0.82;;;18.60;99.90;;;;;;4400706;32;20065;-59
2021/06/10 04:17:21;;;;;;;0.80;0.62;;;18.70;99.90;;;;;;4400140;32;20070;-60
2021/06/10 04:19:47;;;;;;;0.43;0.40;;;18.80;99.90;;;;;;4401404;32;20089;-60
2021/06/10 04:22:12;;;;;;;0.20;0.20;;;18.90;99.90;;;;;;4414435;32;20066;-60
2021/06/10 04:24:38;;;;;;;0.30;0.30;;;18.90;99.90;;;;;;4425709;32;20186;-56
2021/06/10 04:27:04;;;;;;;0.32;0.32;;;19.10;99.90;;;;;;4413757;32;20069;-60
2021/06/10 04:29:30;;;;;;;0.50;0.50;;;19.10;99.90;;;;;;4427889;32;20061;-59
2021/06/10 04:31:56;;;;;;;0.90;0.50;;;19.10;99.90;;;;;;4428960;32;20082;-58
2021/06/10 04:34:21;;;;;;;0.32;0.32;;;19.00;99.90;;;;;;4416150;32;20116;-59
2021/06/10 04:36:47;;;;;;;0.88;0.47;;;19.00;99.90;;;;;;4414174;32;20108;-59
2021/06/10 04:39:12;;;;;;;1.17;0.55;;;19.00;99.90;;;;;;4414370;32;20531;-59
2021/06/10 04:41:38;;;;;;;0.60;0.60;;;19.20;99.90;;;;;;4416994;32;20061;-60
2021/06/10 04:44:04;;;;;;;0.57;0.57;;;19.30;99.90;;;;;;4428160;32;20069;-60
2021/06/10 04:46:29;;;;;;;2.42;0.50;;;19.30;99.90;;;;;;4413588;32;20081;-57
2021/06/10 04:48:56;;;;;;;0.30;0.30;;;19.30;99.90;;;;;;4428046;32;20483;-60
2021/06/10 04:51:25;;;;;;;0.30;0.30;;;19.30;99.90;;;;;;4428594;32;20081;-60
2021/06/10 04:53:52;;;;;;;0.20;0.20;;;19.20;99.90;;;;;;4405678;32;20073;-60
2021/06/10 04:56:19;;;;;;;0.45;0.45;;;19.20;99.90;;;;;;4413848;32;20157;-60
2021/06/10 04:58:44;;;;;;;0.30;0.30;;;19.40;99.90;;;;;;4421114;32;20112;-60
2021/06/10 05:01:10;;;;;;;0.80;0.43;;;19.40;99.90;;;;;;4416137;32;20081;-59
2021/06/10 05:03:35;;;;;;;0.32;0.32;;;19.50;99.90;;;;;;4419710;32;20112;-57
2021/06/10 05:06:01;;;;;;;0.40;0.40;;;19.50;99.90;;;;;;4427863;32;20072;-57
2021/06/10 05:08:26;;;;;;;3.85;1.48;;;19.60;99.90;;;;;;4419104;32;20062;-59
2021/06/10 05:10:52;;;;;;;0.40;0.40;;;19.60;99.90;;;;;;4425653;32;20057;-60
2021/06/10 05:13:18;;;;;;;4.28;1.25;;;19.60;99.90;;;;;;4422373;32;20065;-60
2021/06/10 05:15:43;;;;;;;0.35;0.35;;;19.70;99.90;;;;;;4427438;32;20069;-60
2021/06/10 05:18:09;;;;;;;0.20;0.20;;;19.80;99.90;;;;;;4405246;32;20089;-59
2021/06/10 05:20:34;;;;;;;0.50;0.50;;;19.90;99.90;;;;;;4419430;32;20086;-60
2021/06/10 05:23:00;;;;;;;0.62;0.52;;;20.00;99.90;;;;;;4413887;32;20164;-57
2021/06/10 05:25:25;;;;;;;0.52;0.32;;;20.00;99.90;;;;;;4412810;32;20253;-59
2021/06/10 05:27:51;;;;;;;0.45;0.40;;;20.10;99.90;;;;;;4395098;32;20081;-59
2021/06/10 05:30:17;;;;;;;0.40;0.40;;;20.30;99.90;;;;;;4412237;32;20065;-59
2021/06/10 05:32:43;;;;;;;0.20;0.20;;;20.40;99.90;;;;;;4403884;32;20196;-58
2021/06/10 05:35:09;;;;;;;0.60;0.60;;;20.50;99.90;;;;;;4403624;32;20120;-59
2021/06/10 05:37:34;;;;;;;0.40;0.40;;;20.60;99.90;;;;;;4417450;32;20066;-59
2021/06/10 05:40:00;;;;;;;0.40;0.40;;;20.70;99.90;;;;;;4419149;32;20069;-59
2021/06/10 05:42:25;;;;;;;0.55;0.45;;;20.80;99.90;;;;;;4413379;32;20159;-60
2021/06/10 05:44:51;;;;;;;0.22;0.22;;;20.90;99.90;;;;;;4417819;32;20076;-59
2021/06/10 05:47:16;;;;;;;1.00;0.60;;;20.90;99.90;;;;;;4423302;32;20090;-59
2021/06/10 05:49:42;;;;;;;0.30;0.30;;;21.00;99.90;;;;;;4418822;32;20070;-61
2021/06/10 05:52:07;;;;;;;0.32;0.32;;;21.10;99.90;;;;;;4412744;32;20074;-59
2021/06/10 05:54:33;;;;;;;0.50;0.50;;;21.20;99.90;;;;;;4416109;32;20115;-60
2021/06/10 05:56:59;;;;;;;1.02;0.88;;;21.30;99.90;;;;;;4402046;32;20070;-58
2021/06/10 05:59:25;;;;;;;0.40;0.40;;;21.40;99.90;;;;;;4419938;32;20070;-59
2021/06/10 06:01:51;;;;;;;7.45;1.75;;;21.40;99.90;;;;;;4411779;32;20065;-59
2021/06/10 06:04:16;;;;;;;1.65;0.90;;;21.40;99.90;;;;;;4415900;32;20538;-57
2021/06/10 06:06:43;;;;;;;0.47;0.45;;;21.50;99.90;;;;;;4420317;32;20558;-59
2021/06/10 06:09:08;;;;;;;0.62;0.60;;;21.60;99.90;;;;;;4398366;32;20086;-58
2021/06/10 06:11:36;;;;;;;0.57;0.57;;;21.70;99.90;;;;;;4419267;32;20062;-61
2021/06/10 06:14:07;;;;;;;0.50;0.50;;;21.80;99.90;;;;;;4393751;32;20132;-58
2021/06/10 06:16:36;;;;;;;0.40;0.40;;;21.70;99.90;;;;;;4401183;32;20061;-56
2021/06/10 06:19:03;;;;;;;0.40;0.40;;;21.70;99.90;;;;;;4395684;32;20098;-59
2021/06/10 06:21:29;;;;;;;1.08;0.52;;;21.60;99.90;;;;;;4412707;32;20090;-58
2021/06/10 06:23:57;;;;;;;0.40;0.40;;;21.70;99.90;;;;;;4410607;32;20065;-59
2021/06/10 06:26:23;;;;;;;1.60;1.33;;;21.80;99.90;;;;;;4411585;32;20551;-59
2021/06/10 06:28:49;;;;;;;0.37;0.37;;;21.90;99.90;;;;;;4401891;32;20146;-62
2021/06/10 06:31:14;;;;;;;0.40;0.40;;;22.00;99.90;;;;;;4413003;32;20120;-59
2021/06/10 06:33:40;;;;;;;0.50;0.50;;;22.10;99.90;;;;;;4396668;32;20101;-58
2021/06/10 06:36:07;;;;;;;0.37;0.37;;;22.20;99.90;;;;;;4413299;32;20548;-58
2021/06/10 06:38:32;;;;;;;1.45;1.00;;;22.30;99.80;;;;;;4386709;32;20526;-57
2021/06/10 06:40:59;;;;;;;0.93;0.70;;;22.40;99.70;;;;;;4390149;32;20311;-58
2021/06/10 06:43:28;;;;;;;0.45;0.45;;;22.40;99.10;;;;;;4410049;32;20062;-59
2021/06/10 06:45:54;;;;;;;0.40;0.40;;;22.60;99.00;;;;;;4411441;32;20137;-58
2021/06/10 06:48:21;;;;;;;0.47;0.45;;;22.70;98.20;;;;;;4420407;32;21531;-58
2021/06/10 06:50:46;;;;;;;1.27;1.00;;;22.90;98.80;;;;;;4415166;32;20060;-58
2021/06/10 06:53:12;;;;;;;1.17;0.70;;;23.00;98.20;;;;;;4418999;32;20638;-58
2021/06/10 06:55:37;;;;;;;0.82;0.70;;;23.10;97.30;;;;;;4385278;32;20120;-57
2021/06/10 06:58:03;;;;;;;0.88;0.60;;;23.10;96.80;;;;;;4413175;32;20535;-59
2021/06/10 07:00:29;;;;;;;0.50;0.50;;;23.20;97.20;;;;;;4396776;32;20064;-58
2021/06/10 07:02:54;;;;;;;1.65;1.17;;;23.30;96.70;;;;;;4410399;32;20417;-59
2021/06/10 07:05:20;;;;;;;1.55;0.90;;;23.40;95.80;;;;;;4408119;32;20530;-57
2021/06/10 07:07:46;;;;;;;0.25;0.25;;;23.60;95.20;;;;;;4414563;32;20089;-59
2021/06/10 07:10:12;;;;;;;0.20;0.20;;;23.70;94.60;;;;;;4419498;32;20415;-58
2021/06/10 07:12:38;;;;;;;0.40;0.40;;;23.80;93.60;;;;;;4387041;32;20081;-60
2021/06/10 07:15:05;;;;;;;0.30;0.30;;;23.80;93.30;;;;;;4398975;32;20105;-60
2021/06/10 07:17:30;;;;;;;0.40;0.40;;;23.90;93.30;;;;;;4399667;32;20182;-60
2021/06/10 07:19:57;;;;;;;0.50;0.50;;;24.00;92.90;;;;;;4415292;32;20127;-60
2021/06/10 07:22:23;;;;;;;0.20;0.20;;;24.00;92.50;;;;;;4414806;32;20124;-58
2021/06/10 07:24:49;;;;;;;0.30;0.30;;;24.00;90.40;;;;;;4395681;32;20079;-59
2021/06/10 07:27:16;;;;;;;0.47;0.47;;;24.00;90.30;;;;;;4385186;32;20175;-59
2021/06/10 07:29:41;;;;;;;0.20;0.20;;;24.00;90.90;;;;;;4399351;32;20086;-60
2021/06/10 07:32:07;;;;;;;2.55;0.90;;;24.20;90.50;;;;;;4401589;32;21961;-59
2021/06/10 07:34:34;;;;;;;0.20;0.20;;;24.30;89.80;;;;;;4414564;32;20494;-59
2021/06/10 07:37:00;;;;;;;0.30;0.30;;;24.40;90.10;;;;;;4412041;32;20471;-57
2021/06/10 07:39:26;;;;;;;0.32;0.32;;;24.50;89.70;;;;;;4408884;32;20644;-59
2021/06/10 07:41:51;;;;;;;1.00;0.52;;;24.70;90.30;;;;;;4410483;32;20069;-59
2021/06/10 07:44:16;;;;;;;0.20;0.20;;;24.70;89.10;;;;;;4409534;32;20801;-58
2021/06/10 07:46:42;;;;;;;0.35;0.35;;;24.80;89.40;;;;;;4408438;32;20093;-59
2021/06/10 07:49:07;;;;;;;0.80;0.65;;;24.90;90.10;;;;;;4408211;32;20112;-61
2021/06/10 07:51:33;;;;;;;0.30;0.30;;;25.00;90.10;;;;;;4406151;32;20150;-59
2021/06/10 07:53:58;;;;;;;0.25;0.22;;;25.20;90.00;;;;;;4406435;32;20598;-58
2021/06/10 07:56:24;;;;;;;3.08;0.50;;;25.30;88.90;;;;;;4404017;32;20073;-60
2021/06/10 07:58:49;;;;;;;0.32;0.25;;;25.30;89.00;;;;;;4402381;32;20143;-59
2021/06/10 08:01:15;;;;;;;0.88;0.60;;;25.40;88.70;;;;;;4406709;32;20535;-59
2021/06/10 08:03:41;;;;;;;0.47;0.47;;;25.40;87.90;;;;;;4392003;32;20090;-59
2021/06/10 08:06:06;;;;;;;0.20;0.20;;;25.30;88.60;;;;;;4405119;32;20747;-60
2021/06/10 08:08:32;;;;;;;3.20;1.05;;;25.40;89.00;;;;;;4404313;32;20085;-60
2021/06/10 08:11:05;;;;;;;1.25;0.40;;;25.50;88.00;;;;;;4403960;32;20085;-60
2021/06/10 08:13:31;;;;;;;0.20;0.20;;;25.60;87.70;;;;;;4386774;32;20098;-59
2021/06/10 08:15:56;;;;;;;1.55;0.43;;;25.70;87.70;;;;;;4402513;32;20115;-60
2021/06/10 08:18:22;;;;;;;0.50;0.50;;;25.70;88.40;;;;;;4389990;32;20081;-60
2021/06/10 08:20:47;;;;;;;0.40;0.40;;;25.70;87.40;;;;;;4405359;32;20530;-60
2021/06/10 08:23:13;;;;;;;4.78;0.50;;;25.70;87.70;;;;;;4407011;32;20523;-59
2021/06/10 08:25:43;;;;;;;0.22;0.22;;;25.80;87.50;;;;;;4407804;32;20945;-59
2021/06/10 08:28:11;;;;;;;5.93;1.05;;;25.80;87.40;;;;;;4405538;32;20161;-60
2021/06/10 08:30:38;;;;;;;0.20;0.20;;;25.90;87.90;;;;;;4391812;32;20631;-60
2021/06/10 08:33:04;;;;;;;0.37;0.37;;;25.80;87.10;;;;;;4403350;32;20081;-59
2021/06/10 08:35:30;;;;;;;2.10;0.85;;;25.90;87.20;;;;;;4407214;32;20077;-62
2021/06/10 08:37:56;;;;;;;1.55;0.95;;;26.00;86.40;;;;;;4404811;32;20074;-58
2021/06/10 08:40:22;;;;;;;0.32;0.32;;;26.00;85.80;;;;;;4403612;32;20121;-59
2021/06/10 08:42:48;;;;;;;0.20;0.20;;;26.10;85.90;;;;;;4405577;32;20426;-60
2021/06/10 08:45:17;;;;;;;0.88;0.55;;;26.20;85.40;;;;;;4380833;32;20555;-62
2021/06/10 08:47:45;;;;;;;0.30;0.30;;;26.30;85.00;;;;;;4404016;32;20084;-59
2021/06/10 08:50:21;;;;;;;0.20;0.20;;;26.30;84.70;;;;;;4385071;32;20881;-60
2021/06/10 08:52:47;;;;;;;0.28;0.28;;;26.30;85.00;;;;;;4391768;32;21109;-59
2021/06/10 08:55:13;;;;;;;0.20;0.20;;;26.30;84.70;;;;;;4392059;32;20089;-59
2021/06/10 08:57:39;;;;;;;0.28;0.28;;;26.30;84.90;;;;;;4403609;32;20483;-61
2021/06/10 09:00:08;;;;;;;1.50;0.65;;;26.20;84.70;;;;;;4406213;32;20085;-56
2021/06/10 09:02:34;;;;;;;1.50;0.40;;;26.40;83.70;;;;;;4404856;32;20078;-55
2021/06/10 09:05:11;;;;;;;0.30;0.30;;;26.60;84.60;;;;;;4404886;32;20081;-59
2021/06/10 09:07:39;;;;;;;0.25;0.25;;;26.60;83.40;;;;;;4392406;32;20327;-58
2021/06/10 09:10:07;;;;;;;0.35;0.35;;;26.60;83.90;;;;;;4392831;32;20136;-59
2021/06/10 09:12:47;;;;;;;0.30;0.30;;;26.60;83.60;;;;;;4405629;32;20770;-58
2021/06/10 09:15:13;;;;;;;0.40;0.40;;;26.60;84.10;;;;;;4400859;32;20108;-58
2021/06/10 09:17:41;;;;;;;0.47;0.37;;;26.70;83.30;;;;;;4393110;32;20089;-59
2021/06/10 09:20:27;;;;;;;1.75;0.75;;;26.80;84.10;;;;;;4394609;32;20432;-58
2021/06/10 09:23:10;;;;;;;3.67;1.35;;;26.80;83.80;;;;;;4411594;32;20100;-57
2021/06/10 09:25:36;;;;;;;2.30;0.85;;;27.00;82.30;;;;;;4413742;32;20097;-58
2021/06/10 09:28:04;;;;;;;0.57;0.57;;;27.10;82.20;;;;;;4414018;32;20074;-59
2021/06/10 09:30:33;;;;;;;2.85;0.75;;;27.10;81.10;;;;;;4393560;32;20106;-59
2021/06/10 09:33:01;;;;;;;0.90;0.65;;;27.00;81.80;;;;;;4397298;32;20132;-59
2021/06/10 09:35:33;;;;;;;0.25;0.25;;;27.00;81.10;;;;;;4401375;32;20535;-59
2021/06/10 09:38:01;;;;;;;0.20;0.20;;;27.10;82.10;;;;;;4400297;32;20103;-58
2021/06/10 09:40:28;;;;;;;0.75;0.62;;;27.20;80.90;;;;;;4399630;32;72997;-59
2021/06/10 09:42:54;;;;;;;0.20;0.20;;;27.20;81.60;;;;;;4395534;32;20538;-58
2021/06/10 09:45:24;;;;;;;1.00;0.47;;;27.30;81.20;;;;;;4417962;32;20066;-59
2021/06/10 09:47:52;;;;;;;2.65;0.85;;;27.20;82.20;;;;;;4393919;32;20077;-59
2021/06/10 09:50:41;;;;;;;0.40;0.40;;;26.80;80.50;;;;;;4409791;32;20146;-56
2021/06/10 09:53:14;;;;;;;1.12;0.43;;;26.50;81.80;;;;;;4399855;32;20147;-59
2021/06/10 09:56:08;;;;;;;0.43;0.43;;;26.50;82.20;;;;;;4411874;32;20053;-59
2021/06/10 09:58:39;;;;;;;0.20;0.20;;;26.80;81.20;;;;;;4391236;32;20101;-57
2021/06/10 10:01:14;;;;;;;0.40;0.40;;;27.00;81.70;;;;;;4402052;32;20085;-59
2021/06/10 10:03:44;;;;;;;0.95;0.75;;;26.80;81.00;;;;;;4410424;32;20085;-60
2021/06/10 10:06:18;;;;;;;0.70;0.70;;;26.80;81.90;;;;;;4422394;32;20115;-59
2021/06/10 10:08:47;;;;;;;0.15;0.15;;;26.80;79.90;;;;;;4402796;32;20551;-57
2021/06/10 10:11:14;;;;;;;0.30;0.30;;;26.90;78.40;;;;;;4407857;32;20487;-60
2021/06/10 10:13:41;;;;;;;5.53;1.05;;;27.00;79.40;;;;;;4422840;32;20416;-59
2021/06/10 10:16:06;;;;;;;0.43;0.43;;;26.90;79.40;;;;;;4406137;32;20482;-60
2021/06/10 10:18:32;;;;;;;0.40;0.40;;;27.00;80.10;;;;;;4405540;32;20109;-60
2021/06/10 10:20:59;;;;;;;0.30;0.30;;;27.30;80.00;;;;;;4423094;32;20417;-59
2021/06/10 10:23:25;;;;;;;1.55;0.65;;;27.60;80.80;;;;;;4420473;32;20098;-59
2021/06/10 10:25:55;;;;;;;0.65;0.55;;;27.60;79.20;;;;;;4419581;32;20136;-60
2021/06/10 10:28:21;;;;;;;0.50;0.50;;;27.80;78.80;;;;;;4388143;32;20054;-60
2021/06/10 10:30:47;;;;;;;2.10;0.73;;;28.00;78.20;;;;;;4414500;32;20481;-59
2021/06/10 10:33:18;;;;;;;4.03;0.50;;;27.60;77.70;;;;;;4422937;32;20072;-60
2021/06/10 10:35:55;;;;;;;0.50;0.50;;;27.40;77.70;;;;;;4403641;32;20085;-59
2021/06/10 10:38:30;;;;;;;0.40;0.40;;;26.80;78.80;;;;;;4399789;32;20504;-59
2021/06/10 10:41:00;;;;;;;1.00;0.62;;;26.50;79.60;;;;;;4418695;32;20069;-58
2021/06/10 10:43:28;;;;;;;0.40;0.40;;;26.50;79.40;;;;;;4398502;32;20442;-58
2021/06/10 10:46:11;;;;;;;0.52;0.52;;;26.40;80.40;;;;;;4400113;32;20069;-58
2021/06/10 10:48:41;;;;;;;2.17;0.75;;;26.80;79.10;;;;;;4420264;32;20104;-59
2021/06/10 10:51:25;;;;;;;0.55;0.55;;;27.20;76.30;;;;;;4402499;32;20093;-60
2021/06/10 10:53:56;;;;;;;1.60;0.90;;;27.60;75.50;;;;;;4418601;32;20258;-61
2021/06/10 10:56:33;;;;;;;;;;;27.80;74.00;;;;;;4411678;32;20154;-59
2021/06/10 10:59:17;;;;;;;0.20;0.20;;;28.00;74.70;;;;;;4414755;32;19968;-59
2021/06/10 11:02:02;;;;;;;0.20;0.20;;;27.80;73.40;;;;;;4397669;32;20168;-58
2021/06/10 11:04:52;;;;;;;1.10;0.75;;;27.40;74.80;;;;;;4394992;32;21271;-57
2021/06/10 11:07:36;;;;;;;0.35;0.35;;;27.70;74.30;;;;;;4403267;32;20139;-60
2021/06/10 11:10:06;;;;;;;0.13;0.13;;;28.10;73.40;;;;;;4418695;32;20127;-55
2021/06/10 11:12:52;;;;;;;0.43;0.43;;;28.60;73.60;;;;;;4420544;32;20570;-58
2021/06/10 11:15:25;;;;;;;0.52;0.20;;;29.10;73.50;;;;;;4403877;32;20499;-57
2021/06/10 11:17:55;;;;;;;0.10;0.10;;;29.40;70.70;;;;;;4420660;32;20439;-55
2021/06/10 11:20:41;;;;;;;0.47;0.47;;;29.20;70.00;;;;;;4413959;32;20093;-58
2021/06/10 11:23:13;;;;;;;0.20;0.20;;;29.20;69.00;;;;;;4422153;32;20440;-59
2021/06/10 11:25:50;;;;;;;1.08;0.68;;;29.30;68.40;;;;;;4417789;32;20606;-55
2021/06/10 11:28:21;;;;;;;1.25;0.55;;;29.70;66.90;;;;;;4393494;32;20526;-59
2021/06/10 11:30:50;;;;;;;0.17;0.17;;;29.90;67.20;;;;;;4399439;32;20547;-56
2021/06/10 11:33:17;;;;;;;0.37;0.37;;;29.80;64.00;;;;;;4412461;32;20531;-57
2021/06/10 11:35:48;;;;;;;0.20;0.20;;;29.90;65.50;;;;;;4421687;32;20093;-58
2021/06/10 11:38:17;;;;;;;0.37;0.28;;;30.40;65.40;;;;;;4401552;32;20084;-58
2021/06/10 11:40:46;;;;;;;0.20;0.20;;;30.60;65.00;;;;;;4426721;32;20132;-60
2021/06/10 11:43:14;;;;;;;0.28;0.28;;;31.00;64.90;;;;;;4410976;32;20113;-60
2021/06/10 11:45:41;;;;;;;0.47;0.47;;;31.40;61.80;;;;;;4392319;32;20431;-61
2021/06/10 11:48:08;;;;;;;0.10;0.10;;;31.50;61.80;;;;;;4403869;32;20072;-61
2021/06/10 11:50:38;;;;;;;0.10;0.10;;;31.70;60.60;;;;;;4413964;32;20162;-59
2021/06/10 11:53:07;;;;;;;5.47;0.50;;;31.30;60.10;;;;;;4418239;32;20125;-59
2021/06/10 11:55:35;;;;;;;0.10;0.10;;;31.40;60.90;;;;;;4416202;32;20148;-60
2021/06/10 11:58:04;;;;;;;0.20;0.20;;;31.80;59.60;;;;;;4401072;32;20101;-59
2021/06/10 12:00:36;;;;;;;0.10;0.10;;;32.00;59.00;;;;;;4399239;32;20084;-60
2021/06/10 12:03:04;;;;;;;0.30;0.30;;;32.10;58.50;;;;;;4396965;32;20066;-59
2021/06/10 12:05:32;;;;;;;0.20;0.20;;;32.40;58.90;;;;;;4398947;32;20535;-59
2021/06/10 12:08:16;;;;;;;6.32;0.70;;;32.80;57.10;;;;;;4400367;32;20085;-59
2021/06/10 12:10:48;;;;;;;1.08;0.17;;;32.90;56.90;;;;;;4401780;32;20134;-57
2021/06/10 12:13:13;;;;;;;1.25;0.20;;;32.80;57.40;;;;;;4409795;32;20073;-60
2021/06/10 12:15:45;;;;;;;0.62;0.45;;;32.40;57.60;;;;;;4417521;32;20070;-59
2021/06/10 12:18:14;;;;;;;0.15;0.15;;;32.40;57.20;;;;;;4400039;32;20092;-59
2021/06/10 12:20:43;;;;;;;0.00;0.00;;;31.60;58.20;;;;;;4411121;32;20130;-60
2021/06/10 12:23:18;;;;;;;0.43;0.43;;;31.40;58.40;;;;;;4402803;32;20097;-60
2021/06/10 12:25:49;;;;;;;0.65;0.55;;;31.90;58.50;;;;;;4424141;32;20081;-59
2021/06/10 12:28:36;;;;;;;0.20;0.20;;;32.40;56.70;;;;;;4398852;32;20081;-55
2021/06/10 12:31:05;;;;;;;0.10;0.10;;;32.70;55.10;;;;;;4402204;32;20073;-58
2021/06/10 12:33:32;;;;;;;0.10;0.10;;;32.80;54.60;;;;;;4417368;32;20509;-59
2021/06/10 12:35:58;;;;;;;0.45;0.37;;;33.00;54.00;;;;;;4417143;32;20090;-60
2021/06/10 12:38:30;;;;;;;0.20;0.20;;;33.40;53.90;;;;;;4400336;32;20081;-59
2021/06/10 12:41:25;;;;;;;0.10;0.10;;;33.50;54.50;;;;;;4418999;32;20070;-59
2021/06/10 12:43:52;;;;;;;0.40;0.35;;;33.70;53.70;;;;;;4419872;32;20100;-58
2021/06/10 12:46:21;;;;;;;0.15;0.15;;;33.80;53.70;;;;;;4417574;32;20545;-57
2021/06/10 12:49:02;;;;;;;0.60;0.35;;;33.30;53.90;;;;;;4414503;32;20070;-59
2021/06/10 12:51:32;;;;;;;2.25;0.50;;;32.70;54.30;;;;;;4416768;32;20116;-59
2021/06/10 12:54:00;;;;;;;0.20;0.20;;;32.80;54.50;;;;;;4405910;32;20073;-57